Time;durP1;ratioP1;P1;durP2;ratioP2;P2;SDS_P1;SDS_P2;PMS_P1;PMS_P2;Temp;Humidity;BMP_temperature;BMP_pressure;BME280_temperature;BME280_humidity;BME280_pressure;Samples;Min_cycle;Max_cycle;Signal;HPM_P1;HPM_P2
2023/09/27 00:01:01;;;;;;;4.57;4.07;;;19.60;73.00;;;;;;5053321;28;20232;-77
2023/09/27 00:03:28;;;;;;;3.43;3.13;;;19.50;72.80;;;;;;5052843;28;20225;-77
2023/09/27 00:05:55;;;;;;;3.57;3.27;;;19.50;72.80;;;;;;5053164;28;20202;-77
2023/09/27 00:08:22;;;;;;;3.57;3.23;;;19.50;73.00;;;;;;5053230;28;20234;-77
2023/09/27 00:10:49;;;;;;;4.07;3.03;;;19.40;73.10;;;;;;5053375;28;20305;-77
2023/09/27 00:13:17;;;;;;;3.97;3.30;;;19.40;73.10;;;;;;5052626;28;20205;-77
2023/09/27 00:15:46;;;;;;;4.30;3.33;;;19.40;73.00;;;;;;5052886;28;20609;-77
2023/09/27 00:18:14;;;;;;;3.57;3.27;;;19.40;73.30;;;;;;5052903;28;20295;-78
2023/09/27 00:20:41;;;;;;;4.00;3.60;;;19.30;73.00;;;;;;5052552;28;20229;-78
2023/09/27 00:23:08;;;;;;;3.60;3.20;;;19.30;73.00;;;;;;5052737;28;20539;-77
2023/09/27 00:25:36;;;;;;;3.33;3.03;;;19.30;73.10;;;;;;5052720;28;20225;-77
2023/09/27 00:28:03;;;;;;;3.73;3.33;;;19.30;73.30;;;;;;5052919;28;20198;-77
2023/09/27 00:30:30;;;;;;;3.40;3.10;;;19.20;73.50;;;;;;5035218;28;20561;-77
2023/09/27 00:32:59;;;;;;;6.20;3.00;;;19.20;73.50;;;;;;5052513;28;20198;-77
2023/09/27 00:35:25;;;;;;;3.70;3.30;;;19.20;73.50;;;;;;5017648;28;20581;-77
2023/09/27 00:37:52;;;;;;;3.47;3.17;;;19.10;73.30;;;;;;5052716;28;20225;-78
2023/09/27 00:40:22;;;;;;;3.60;3.30;;;19.10;73.30;;;;;;5052586;28;20197;-77
2023/09/27 00:42:49;;;;;;;3.60;3.30;;;19.10;73.40;;;;;;5051880;28;20213;-77
2023/09/27 00:45:17;;;;;;;6.47;3.90;;;19.00;73.20;;;;;;5052018;28;20208;-77
2023/09/27 00:47:44;;;;;;;3.87;3.30;;;19.00;73.40;;;;;;5052453;28;20201;-78
2023/09/27 00:50:12;;;;;;;3.60;3.30;;;18.90;73.50;;;;;;5034321;28;20229;-78
2023/09/27 00:52:41;;;;;;;3.73;3.43;;;18.90;73.50;;;;;;5050326;28;20214;-77
2023/09/27 00:55:10;;;;;;;3.90;3.50;;;18.90;73.60;;;;;;5051896;28;20316;-77
2023/09/27 00:57:37;;;;;;;3.60;3.20;;;18.90;73.50;;;;;;5052691;28;20213;-77
2023/09/27 01:00:06;;;;;;;3.20;2.90;;;18.90;74.00;;;;;;5052394;28;20642;-77
2023/09/27 01:02:34;;;;;;;4.50;3.40;;;18.80;73.00;;;;;;5052131;28;20264;-77
2023/09/27 01:05:00;;;;;;;4.10;3.10;;;18.80;73.10;;;;;;5052096;28;20210;-77
2023/09/27 01:07:30;;;;;;;4.37;3.30;;;18.80;73.50;;;;;;5051986;28;20221;-77
2023/09/27 01:09:57;;;;;;;4.70;3.30;;;18.70;73.90;;;;;;5050022;28;20217;-77
2023/09/27 01:12:24;;;;;;;3.33;2.80;;;18.70;74.30;;;;;;5051197;28;20218;-77
2023/09/27 01:14:51;;;;;;;3.87;3.10;;;18.70;74.00;;;;;;5052162;28;20622;-77
2023/09/27 01:17:18;;;;;;;4.07;3.30;;;18.70;73.60;;;;;;5051749;28;20689;-78
2023/09/27 01:19:45;;;;;;;3.97;3.67;;;18.70;73.60;;;;;;5032857;28;20237;-77
2023/09/27 01:22:12;;;;;;;3.70;3.40;;;18.60;73.60;;;;;;5051497;28;20214;-77
2023/09/27 01:24:41;;;;;;;3.70;3.40;;;18.70;73.90;;;;;;5052082;28;20202;-77
2023/09/27 01:27:12;;;;;;;5.93;3.40;;;18.70;74.00;;;;;;5051738;28;20220;-77
2023/09/27 01:29:39;;;;;;;3.83;3.47;;;18.60;73.80;;;;;;5051782;28;20225;-77
2023/09/27 01:32:05;;;;;;;5.07;3.60;;;18.60;73.50;;;;;;5052107;28;20470;-77
2023/09/27 01:34:32;;;;;;;4.77;3.63;;;18.50;73.20;;;;;;5051307;28;20217;-77
2023/09/27 01:36:59;;;;;;;3.90;3.10;;;18.50;73.30;;;;;;5051527;28;20210;-77
2023/09/27 01:39:26;;;;;;;4.20;3.80;;;18.40;73.20;;;;;;5033848;28;20970;-77
2023/09/27 01:41:55;;;;;;;6.57;3.90;;;18.40;73.20;;;;;;5051173;28;20229;-77
2023/09/27 01:44:22;;;;;;;3.83;3.50;;;18.40;73.20;;;;;;5050057;28;20217;-78
2023/09/27 01:46:49;;;;;;;4.43;3.70;;;18.40;73.30;;;;;;5050987;28;20226;-78
2023/09/27 01:49:16;;;;;;;3.53;3.23;;;18.30;73.30;;;;;;5051619;28;20224;-77
2023/09/27 01:51:43;;;;;;;4.97;4.00;;;18.30;73.30;;;;;;5051528;28;20646;-77
2023/09/27 01:54:10;;;;;;;3.80;3.37;;;18.20;73.70;;;;;;5051161;28;20202;-77
2023/09/27 01:56:37;;;;;;;4.53;3.87;;;18.20;74.00;;;;;;5033776;28;20204;-77
2023/09/27 01:59:05;;;;;;;6.03;3.50;;;18.10;74.20;;;;;;5051290;28;20476;-77
2023/09/27 02:01:32;;;;;;;5.03;3.70;;;18.10;74.20;;;;;;5051268;28;20491;-77
2023/09/27 02:03:58;;;;;;;4.10;3.70;;;18.10;74.30;;;;;;5051107;28;20492;-77
2023/09/27 02:06:25;;;;;;;4.23;3.83;;;18.10;75.00;;;;;;5050411;28;20205;-77
2023/09/27 02:08:52;;;;;;;4.00;3.70;;;18.10;74.20;;;;;;5050628;28;20210;-77
2023/09/27 02:11:25;;;;;;;3.40;3.10;;;18.10;74.00;;;;;;5051823;28;20194;-77
2023/09/27 02:13:52;;;;;;;4.17;3.80;;;18.10;73.90;;;;;;5050393;28;20205;-77
2023/09/27 02:16:20;;;;;;;3.63;3.30;;;18.00;74.10;;;;;;5033718;28;20229;-77
2023/09/27 02:18:47;;;;;;;5.97;4.10;;;18.00;74.10;;;;;;5051087;28;20194;-77
2023/09/27 02:21:14;;;;;;;4.87;3.73;;;18.00;74.00;;;;;;5050875;28;20237;-78
2023/09/27 02:23:40;;;;;;;4.30;3.90;;;18.00;74.00;;;;;;5051209;28;20460;-77
2023/09/27 02:26:09;;;;;;;4.27;3.87;;;17.90;74.10;;;;;;5050883;28;20765;-78
2023/09/27 02:28:36;;;;;;;4.07;3.37;;;17.90;74.00;;;;;;5050755;28;20484;-78
2023/09/27 02:31:08;;;;;;;4.20;3.73;;;17.90;74.00;;;;;;5051576;28;20460;-78
2023/09/27 02:33:37;;;;;;;6.93;3.80;;;17.80;73.70;;;;;;5050922;28;20543;-77
2023/09/27 02:36:04;;;;;;;4.17;3.70;;;17.80;73.90;;;;;;5051248;28;20194;-77
2023/09/27 02:38:32;;;;;;;4.37;3.97;;;17.70;74.30;;;;;;5050863;28;20194;-78
2023/09/27 02:40:58;;;;;;;4.80;3.97;;;17.70;74.80;;;;;;5050966;28;20490;-77
2023/09/27 02:43:25;;;;;;;3.77;3.47;;;17.70;74.90;;;;;;5050723;28;20844;-78
2023/09/27 02:45:52;;;;;;;4.27;3.90;;;17.70;74.90;;;;;;5050854;28;20351;-74
2023/09/27 02:48:19;;;;;;;4.47;3.53;;;17.70;74.70;;;;;;5032720;28;20812;-77
2023/09/27 02:50:49;;;;;;;4.37;3.97;;;17.60;74.70;;;;;;5051397;28;20678;-77
2023/09/27 02:53:16;;;;;;;3.93;3.53;;;17.70;75.10;;;;;;5050426;28;20195;-77
2023/09/27 02:55:43;;;;;;;4.13;3.60;;;17.70;74.80;;;;;;5051081;28;20561;-77
2023/09/27 02:58:10;;;;;;;3.83;3.50;;;17.70;74.80;;;;;;5050523;28;21011;-77
2023/09/27 03:00:37;;;;;;;4.60;3.70;;;17.70;74.50;;;;;;5053864;28;20480;-77
2023/09/27 03:03:07;;;;;;;3.57;3.27;;;17.70;74.40;;;;;;5054245;28;20479;-77
2023/09/27 03:05:36;;;;;;;3.93;3.60;;;17.70;74.30;;;;;;5054623;28;20201;-78
2023/09/27 03:08:06;;;;;;;5.00;3.50;;;17.70;74.30;;;;;;5053916;28;20460;-77
2023/09/27 03:10:38;;;;;;;4.07;3.63;;;17.60;74.40;;;;;;5054450;28;20827;-78
2023/09/27 03:13:05;;;;;;;4.03;3.67;;;17.60;74.50;;;;;;5054158;28;20432;-77
2023/09/27 03:15:32;;;;;;;4.53;4.00;;;17.60;74.40;;;;;;5052262;28;20360;-77
2023/09/27 03:18:00;;;;;;;3.87;3.57;;;17.60;74.10;;;;;;5037014;28;20246;-77
2023/09/27 03:20:26;;;;;;;5.53;3.70;;;17.50;73.80;;;;;;5054168;28;20557;-77
2023/09/27 03:22:53;;;;;;;3.73;3.40;;;17.50;73.70;;;;;;5054007;28;20490;-78
2023/09/27 03:25:21;;;;;;;4.47;3.63;;;17.50;73.60;;;;;;5052876;28;20476;-77
2023/09/27 03:27:48;;;;;;;5.07;3.77;;;17.50;73.70;;;;;;5033991;28;20462;-77
2023/09/27 03:30:15;;;;;;;3.63;3.33;;;17.40;73.50;;;;;;5042835;28;20448;-77
2023/09/27 03:32:42;;;;;;;4.10;3.70;;;17.40;73.60;;;;;;5053760;28;20228;-77
2023/09/27 03:35:10;;;;;;;3.80;3.40;;;17.40;73.50;;;;;;5054176;28;20330;-77
2023/09/27 03:37:36;;;;;;;5.03;3.80;;;17.30;73.60;;;;;;5054354;28;20475;-77
2023/09/27 03:40:04;;;;;;;4.70;4.03;;;17.30;73.70;;;;;;5054444;28;20198;-77
2023/09/27 03:42:34;;;;;;;4.93;4.07;;;17.30;74.10;;;;;;5043978;28;20567;-76
2023/09/27 03:45:00;;;;;;;4.33;3.80;;;17.20;74.00;;;;;;5049239;28;20999;-77
2023/09/27 03:47:29;;;;;;;5.07;3.73;;;17.20;73.80;;;;;;5053817;28;20230;-77
2023/09/27 03:49:56;;;;;;;3.97;3.57;;;17.20;73.90;;;;;;5034195;28;20488;-77
2023/09/27 03:52:23;;;;;;;4.63;3.77;;;17.20;73.90;;;;;;5053734;28;20456;-77
2023/09/27 03:54:50;;;;;;;5.43;3.90;;;17.10;73.90;;;;;;5053273;28;20488;-77
2023/09/27 03:57:17;;;;;;;5.53;3.87;;;17.10;73.70;;;;;;5052854;28;20956;-77
2023/09/27 03:59:46;;;;;;;4.00;3.60;;;17.10;73.80;;;;;;5017968;28;20209;-77
2023/09/27 04:02:13;;;;;;;4.20;3.87;;;17.10;73.90;;;;;;5053282;28;20487;-77
2023/09/27 04:04:39;;;;;;;6.50;4.10;;;17.10;73.90;;;;;;5053435;28;20244;-77
2023/09/27 04:07:06;;;;;;;5.23;4.17;;;17.10;74.10;;;;;;5052873;28;20491;-77
2023/09/27 04:09:34;;;;;;;4.40;4.00;;;17.00;74.80;;;;;;5052580;28;20459;-77
2023/09/27 04:12:00;;;;;;;4.00;3.60;;;17.00;74.10;;;;;;5035403;28;20448;-77
2023/09/27 04:14:27;;;;;;;4.53;4.10;;;17.00;74.00;;;;;;5052621;28;20473;-77
2023/09/27 04:16:59;;;;;;;4.10;3.70;;;17.00;73.70;;;;;;5034938;28;20808;-77
2023/09/27 04:19:26;;;;;;;4.17;3.77;;;17.00;74.50;;;;;;5052931;28;20523;-77
2023/09/27 04:21:53;;;;;;;5.70;4.33;;;17.00;73.70;;;;;;5052661;28;20462;-77
2023/09/27 04:24:20;;;;;;;6.60;3.80;;;17.00;73.70;;;;;;5050972;28;20480;-77
2023/09/27 04:26:47;;;;;;;3.47;3.17;;;16.90;73.80;;;;;;5048513;28;20459;-77
2023/09/27 04:29:13;;;;;;;4.27;3.70;;;16.90;73.90;;;;;;5052464;28;20544;-76
2023/09/27 04:31:40;;;;;;;4.80;3.70;;;16.90;74.40;;;;;;5052624;28;20496;-77
2023/09/27 04:34:09;;;;;;;4.07;3.77;;;16.90;74.70;;;;;;5033776;28;20936;-77
2023/09/27 04:36:36;;;;;;;3.50;3.20;;;16.80;74.50;;;;;;5052752;28;20606;-77
2023/09/27 04:39:05;;;;;;;4.13;3.80;;;16.80;74.30;;;;;;5051455;28;20468;-77
2023/09/27 04:41:33;;;;;;;3.83;3.43;;;16.80;73.90;;;;;;5035564;28;20510;-77
2023/09/27 04:44:00;;;;;;;3.37;3.07;;;16.80;73.70;;;;;;5045646;28;20469;-77
2023/09/27 04:46:26;;;;;;;3.20;2.90;;;16.80;73.80;;;;;;5033061;28;20441;-77
2023/09/27 04:48:53;;;;;;;3.17;2.87;;;16.70;73.90;;;;;;5034357;28;20460;-77
2023/09/27 04:51:22;;;;;;;3.80;2.80;;;16.70;73.90;;;;;;5052552;28;20550;-77
2023/09/27 04:53:48;;;;;;;3.80;3.40;;;16.60;73.80;;;;;;5052192;28;20492;-77
2023/09/27 04:56:15;;;;;;;4.47;3.90;;;16.50;74.10;;;;;;5052424;28;20552;-77
2023/09/27 04:58:42;;;;;;;4.20;3.73;;;16.40;74.40;;;;;;5051874;28;21019;-77
2023/09/27 05:01:10;;;;;;;8.30;4.27;;;16.30;74.90;;;;;;5052552;28;20479;-77
2023/09/27 05:03:37;;;;;;;3.30;3.00;;;16.30;75.70;;;;;;5051844;28;20488;-77
2023/09/27 05:06:04;;;;;;;6.57;4.10;;;16.30;75.50;;;;;;5052144;28;20476;-77
2023/09/27 05:08:32;;;;;;;4.67;3.47;;;16.30;75.10;;;;;;5052038;28;20456;-77
2023/09/27 05:10:59;;;;;;;4.57;3.97;;;16.30;75.00;;;;;;5050417;28;20567;-76
2023/09/27 05:13:26;;;;;;;7.13;5.10;;;16.30;74.80;;;;;;5052058;28;20541;-76
2023/09/27 05:15:53;;;;;;;5.93;4.60;;;16.30;74.90;;;;;;5052087;28;20544;-77
2023/09/27 05:18:22;;;;;;;4.33;3.93;;;16.30;74.90;;;;;;5051876;28;20448;-77
2023/09/27 05:20:49;;;;;;;5.00;4.40;;;16.30;74.80;;;;;;5051404;28;21045;-77
2023/09/27 05:23:16;;;;;;;4.50;4.10;;;16.40;74.60;;;;;;5050612;28;20575;-77
2023/09/27 05:25:45;;;;;;;4.70;4.30;;;16.30;74.30;;;;;;5051226;28;20535;-76
2023/09/27 05:28:11;;;;;;;6.27;4.20;;;16.30;75.20;;;;;;5051064;28;20560;-77
2023/09/27 05:30:38;;;;;;;4.47;4.03;;;16.40;74.50;;;;;;5052078;28;20560;-76
2023/09/27 05:33:05;;;;;;;5.97;4.60;;;16.30;74.30;;;;;;5051005;28;20447;-77
2023/09/27 05:35:32;;;;;;;5.20;4.50;;;16.40;74.50;;;;;;5051351;28;20444;-76
2023/09/27 05:37:59;;;;;;;4.50;4.10;;;16.30;74.50;;;;;;5050494;28;20906;-76
2023/09/27 05:40:26;;;;;;;5.00;4.50;;;16.30;74.30;;;;;;5050175;28;20472;-77
2023/09/27 05:42:55;;;;;;;4.90;4.40;;;16.30;74.20;;;;;;5051443;28;20545;-77
2023/09/27 05:45:22;;;;;;;6.73;4.63;;;16.40;74.30;;;;;;5052920;28;20487;-76
2023/09/27 05:47:49;;;;;;;4.50;4.10;;;16.40;74.30;;;;;;5052554;28;20480;-77
2023/09/27 05:50:16;;;;;;;4.60;4.20;;;16.40;74.40;;;;;;5053064;28;21004;-76
2023/09/27 05:52:43;;;;;;;4.83;4.40;;;16.40;74.40;;;;;;5052447;28;20472;-77
2023/09/27 05:55:11;;;;;;;4.97;4.40;;;16.40;74.40;;;;;;5052896;28;20951;-78
2023/09/27 05:57:38;;;;;;;4.70;4.30;;;16.40;74.50;;;;;;5052988;28;20452;-76
2023/09/27 06:00:15;;;;;;;4.40;4.00;;;16.40;74.80;;;;;;5052548;28;20476;-77
2023/09/27 06:02:43;;;;;;;5.00;4.50;;;16.40;75.10;;;;;;5036047;28;20940;-77
2023/09/27 06:05:11;;;;;;;4.70;4.30;;;16.40;75.10;;;;;;5052276;28;21166;-76
2023/09/27 06:07:38;;;;;;;4.77;4.20;;;16.40;75.10;;;;;;5052222;28;20511;-76
2023/09/27 06:10:06;;;;;;;4.73;3.93;;;16.40;75.20;;;;;;5051045;28;20460;-76
2023/09/27 06:12:33;;;;;;;4.23;3.90;;;16.50;75.50;;;;;;5050175;28;20475;-76
2023/09/27 06:15:00;;;;;;;4.53;4.10;;;16.40;75.40;;;;;;5052198;28;20520;-76
2023/09/27 06:17:28;;;;;;;4.50;4.10;;;16.40;75.50;;;;;;5052155;28;20475;-76
2023/09/27 06:19:55;;;;;;;4.10;3.80;;;16.40;75.80;;;;;;5050588;28;20554;-74
2023/09/27 06:22:23;;;;;;;5.10;4.17;;;16.40;75.80;;;;;;5051133;28;20790;-76
2023/09/27 06:24:50;;;;;;;4.97;4.43;;;16.40;76.10;;;;;;5051617;28;20484;-76
2023/09/27 06:27:17;;;;;;;4.93;4.27;;;16.50;76.40;;;;;;5035347;28;20548;-76
2023/09/27 06:29:44;;;;;;;6.90;4.53;;;16.50;76.40;;;;;;5046951;28;20475;-75
2023/09/27 06:32:11;;;;;;;4.50;4.10;;;16.50;76.60;;;;;;5051083;28;20453;-76
2023/09/27 06:34:39;;;;;;;4.70;4.30;;;16.60;77.00;;;;;;5054324;28;20440;-75
2023/09/27 06:37:07;;;;;;;5.07;4.10;;;16.60;77.20;;;;;;5054100;28;20459;-76
2023/09/27 06:39:34;;;;;;;5.53;4.60;;;16.70;77.30;;;;;;5054921;28;20500;-76
2023/09/27 06:42:02;;;;;;;4.70;4.30;;;16.80;78.20;;;;;;5054879;28;21145;-76
2023/09/27 06:44:29;;;;;;;5.30;4.70;;;16.80;77.70;;;;;;5042663;28;20480;-76
2023/09/27 06:46:56;;;;;;;5.50;5.00;;;16.90;78.30;;;;;;5034413;28;21159;-76
2023/09/27 06:49:23;;;;;;;7.27;4.83;;;17.00;78.50;;;;;;5033975;28;20480;-76
2023/09/27 06:51:53;;;;;;;5.50;5.00;;;17.00;78.60;;;;;;5039792;28;20506;-77
2023/09/27 06:54:21;;;;;;;6.40;4.93;;;17.10;78.90;;;;;;5053727;28;20480;-75
2023/09/27 06:56:48;;;;;;;5.57;5.03;;;17.20;78.80;;;;;;5053809;28;20452;-76
2023/09/27 06:59:15;;;;;;;5.30;4.80;;;17.20;78.90;;;;;;5053530;28;20539;-76
2023/09/27 07:01:42;;;;;;;5.47;4.97;;;17.30;79.70;;;;;;5053685;28;20507;-75
2023/09/27 07:04:09;;;;;;;6.23;5.20;;;17.40;79.80;;;;;;5053373;28;20487;-76
2023/09/27 07:06:36;;;;;;;6.60;6.00;;;17.40;80.30;;;;;;5053695;28;20940;-76
2023/09/27 07:09:05;;;;;;;5.63;5.13;;;17.50;80.40;;;;;;5053535;28;20304;-76
2023/09/27 07:11:31;;;;;;;5.67;4.80;;;17.60;80.60;;;;;;5053581;28;20452;-76
2023/09/27 07:13:59;;;;;;;5.30;4.80;;;17.70;80.50;;;;;;5053245;28;20554;-75
2023/09/27 07:16:26;;;;;;;5.00;4.50;;;17.80;80.70;;;;;;5053661;28;20452;-76
2023/09/27 07:18:54;;;;;;;5.73;4.43;;;17.90;80.40;;;;;;5050138;28;20472;-76
2023/09/27 07:21:21;;;;;;;5.63;4.50;;;18.00;80.50;;;;;;5053831;28;20549;-75
2023/09/27 07:23:49;;;;;;;5.70;4.50;;;18.10;80.30;;;;;;5053467;28;20495;-76
2023/09/27 07:26:17;;;;;;;4.90;4.50;;;18.20;80.20;;;;;;5035295;28;20638;-75
2023/09/27 07:28:45;;;;;;;5.67;5.17;;;18.30;80.30;;;;;;5033971;28;20523;-76
2023/09/27 07:31:13;;;;;;;5.23;4.73;;;18.30;80.30;;;;;;5036311;28;20212;-76
2023/09/27 07:33:40;;;;;;;5.10;4.50;;;18.50;80.30;;;;;;5053660;28;20900;-76
2023/09/27 07:36:08;;;;;;;5.63;4.90;;;18.60;80.30;;;;;;5035274;28;20236;-75
2023/09/27 07:38:36;;;;;;;4.87;4.47;;;18.70;80.10;;;;;;5052969;28;20284;-76
2023/09/27 07:41:03;;;;;;;6.33;4.47;;;18.80;80.00;;;;;;5053307;28;20773;-76
2023/09/27 07:43:31;;;;;;;4.63;4.23;;;18.90;80.10;;;;;;5017843;28;20226;-76
2023/09/27 07:46:01;;;;;;;4.50;4.10;;;19.00;80.20;;;;;;5052615;28;20300;-75
2023/09/27 07:48:30;;;;;;;5.00;4.10;;;19.10;80.50;;;;;;5053036;28;20208;-76
2023/09/27 07:50:58;;;;;;;4.90;4.50;;;19.20;80.50;;;;;;5029247;28;20209;-75
2023/09/27 07:53:25;;;;;;;4.87;3.80;;;19.30;80.70;;;;;;5053271;28;20236;-76
2023/09/27 07:55:53;;;;;;;4.33;3.67;;;19.40;80.50;;;;;;5052845;28;20879;-76
2023/09/27 07:58:21;;;;;;;4.57;3.80;;;19.50;80.40;;;;;;5053413;28;20511;-76
2023/09/27 08:00:49;;;;;;;3.73;3.43;;;19.60;79.80;;;;;;5052729;28;20260;-76
2023/09/27 08:03:18;;;;;;;3.80;3.37;;;19.70;80.60;;;;;;5052801;28;20229;-76
2023/09/27 08:05:45;;;;;;;3.87;3.47;;;19.80;80.20;;;;;;5031677;28;20728;-76
2023/09/27 08:08:13;;;;;;;4.20;3.10;;;19.90;80.10;;;;;;5042828;28;20255;-76
2023/09/27 08:10:43;;;;;;;3.97;3.40;;;20.10;80.00;;;;;;5051296;28;20330;-76
2023/09/27 08:13:12;;;;;;;3.37;3.07;;;20.20;79.60;;;;;;5044397;28;20206;-76
2023/09/27 08:15:40;;;;;;;3.90;3.50;;;20.30;79.10;;;;;;5032602;28;20214;-76
2023/09/27 08:18:08;;;;;;;3.50;3.20;;;20.40;78.80;;;;;;5048309;28;20221;-76
2023/09/27 08:20:35;;;;;;;5.27;3.63;;;20.50;78.90;;;;;;5052443;28;20224;-76
2023/09/27 08:23:02;;;;;;;3.80;3.23;;;20.70;78.30;;;;;;5052509;28;20252;-76
2023/09/27 08:25:29;;;;;;;3.80;3.07;;;20.80;78.90;;;;;;5052574;28;20230;-76
2023/09/27 08:27:56;;;;;;;6.13;3.40;;;20.90;77.30;;;;;;5052389;28;20214;-76
2023/09/27 08:30:23;;;;;;;3.20;2.90;;;21.00;77.30;;;;;;5052921;28;20240;-75
2023/09/27 08:32:51;;;;;;;3.50;3.20;;;21.10;77.50;;;;;;5051559;28;20233;-75
2023/09/27 08:35:19;;;;;;;3.17;2.87;;;21.20;77.60;;;;;;5052278;28;20213;-76
2023/09/27 08:37:47;;;;;;;2.97;2.77;;;21.40;77.70;;;;;;5052122;28;20204;-75
2023/09/27 08:40:15;;;;;;;3.73;3.27;;;21.60;76.80;;;;;;5052780;28;20240;-76
2023/09/27 08:42:42;;;;;;;3.70;3.00;;;21.70;76.80;;;;;;5017129;28;20212;-76
2023/09/27 08:45:13;;;;;;;3.73;2.97;;;21.80;77.10;;;;;;5052109;28;20222;-76
2023/09/27 08:47:41;;;;;;;4.40;3.20;;;22.00;76.90;;;;;;5051126;28;20255;-76
2023/09/27 08:50:11;;;;;;;3.60;2.90;;;22.20;76.40;;;;;;5052065;28;20218;-76
2023/09/27 08:52:39;;;;;;;3.30;3.00;;;22.30;75.80;;;;;;5052255;28;20808;-76
2023/09/27 08:55:07;;;;;;;3.47;3.10;;;22.40;75.00;;;;;;5052509;28;20212;-76
2023/09/27 08:57:37;;;;;;;3.00;2.67;;;22.50;74.90;;;;;;5052063;28;20209;-76
2023/09/27 09:00:13;;;;;;;2.80;2.60;;;22.70;75.20;;;;;;5051505;28;20601;-76
2023/09/27 09:02:43;;;;;;;3.83;2.83;;;22.90;74.70;;;;;;5051798;28;20692;-76
2023/09/27 09:05:11;;;;;;;3.67;2.90;;;23.00;74.70;;;;;;5051666;28;20753;-76
2023/09/27 09:07:41;;;;;;;4.63;2.80;;;23.10;74.10;;;;;;5052168;28;20217;-75
2023/09/27 09:10:13;;;;;;;2.70;2.50;;;23.30;73.30;;;;;;5051736;28;20208;-76
2023/09/27 09:12:41;;;;;;;2.43;2.23;;;23.40;72.70;;;;;;5051315;28;20620;-76
2023/09/27 09:15:14;;;;;;;4.13;3.00;;;23.60;72.50;;;;;;5051377;28;20190;-75
2023/09/27 09:17:50;;;;;;;3.33;2.87;;;23.70;72.10;;;;;;5051923;28;20197;-75
2023/09/27 09:20:21;;;;;;;3.90;3.20;;;23.80;71.60;;;;;;5051355;28;20294;-77
2023/09/27 09:22:53;;;;;;;3.87;2.83;;;24.00;70.50;;;;;;5051385;28;20198;-76
2023/09/27 09:25:22;;;;;;;5.60;2.93;;;24.10;70.10;;;;;;5051106;28;20237;-76
2023/09/27 09:28:03;;;;;;;4.33;2.80;;;24.20;69.30;;;;;;5051526;28;20271;-75
2023/09/27 09:30:37;;;;;;;2.77;2.57;;;24.40;69.20;;;;;;5051554;28;20209;-76
2023/09/27 09:33:10;;;;;;;3.43;3.13;;;24.50;69.20;;;;;;5051214;28;20279;-75
2023/09/27 09:35:38;;;;;;;3.10;2.80;;;24.60;68.60;;;;;;5051350;28;20182;-76
2023/09/27 09:38:07;;;;;;;3.43;2.63;;;24.70;68.50;;;;;;5051552;28;20743;-76
2023/09/27 09:40:34;;;;;;;3.20;2.67;;;24.80;68.00;;;;;;5050936;28;20292;-76
2023/09/27 09:43:02;;;;;;;3.60;2.53;;;25.00;67.50;;;;;;5050670;28;20228;-75
2023/09/27 09:45:29;;;;;;;3.20;2.90;;;25.10;67.20;;;;;;5031400;28;20222;-75
2023/09/27 09:47:57;;;;;;;2.93;2.73;;;25.30;66.80;;;;;;5043820;28;20210;-76
2023/09/27 09:50:26;;;;;;;3.77;2.67;;;25.40;66.50;;;;;;5051536;28;20240;-76
2023/09/27 09:52:57;;;;;;;2.97;2.73;;;25.50;66.20;;;;;;5050779;28;20229;-75
2023/09/27 09:55:29;;;;;;;3.10;2.80;;;25.60;65.70;;;;;;5033471;28;20202;-76
2023/09/27 09:57:56;;;;;;;4.00;2.70;;;25.80;65.50;;;;;;5050675;28;20827;-75
2023/09/27 10:00:27;;;;;;;5.40;2.90;;;25.90;65.20;;;;;;5051262;28;20265;-76
2023/09/27 10:03:00;;;;;;;2.90;2.70;;;26.00;65.00;;;;;;5050393;28;20202;-76
2023/09/27 10:05:31;;;;;;;2.60;2.40;;;26.20;64.80;;;;;;5050742;28;20268;-75
2023/09/27 10:08:00;;;;;;;3.10;2.73;;;26.30;64.90;;;;;;5051589;28;20240;-76
2023/09/27 10:10:28;;;;;;;4.23;2.97;;;26.50;65.00;;;;;;5053609;28;20230;-76
2023/09/27 10:12:57;;;;;;;3.70;2.90;;;26.60;64.80;;;;;;5045722;28;20226;-76
2023/09/27 10:15:24;;;;;;;3.97;3.10;;;26.70;64.10;;;;;;5054600;28;20214;-76
2023/09/27 10:17:52;;;;;;;4.07;2.90;;;26.80;63.90;;;;;;5036854;28;20284;-76
2023/09/27 10:20:22;;;;;;;3.93;2.50;;;26.80;62.60;;;;;;5041216;28;20211;-75
2023/09/27 10:22:50;;;;;;;3.13;2.70;;;26.90;62.90;;;;;;5043560;28;20297;-76
2023/09/27 10:25:35;;;;;;;3.60;3.03;;;27.00;63.00;;;;;;5053135;28;20781;-76
2023/09/27 10:28:12;;;;;;;3.10;2.80;;;27.20;62.30;;;;;;5041578;28;20278;-76
2023/09/27 10:31:12;;;;;;;3.70;2.90;;;27.30;63.10;;;;;;5054737;28;20263;-77
2023/09/27 10:33:39;;;;;;;3.47;2.97;;;27.40;61.20;;;;;;5054796;28;20214;-75
2023/09/27 10:36:29;;;;;;;3.23;2.93;;;27.60;61.80;;;;;;5054647;28;20204;-75
2023/09/27 10:39:07;;;;;;;3.80;2.87;;;27.70;60.30;;;;;;5054065;28;20289;-76
2023/09/27 10:41:44;;;;;;;3.13;2.83;;;27.80;60.00;;;;;;5036127;28;20211;-76
2023/09/27 10:44:12;;;;;;;3.20;2.90;;;27.90;59.50;;;;;;5048834;28;20232;-76
2023/09/27 10:46:42;;;;;;;3.53;3.07;;;28.10;59.50;;;;;;5054460;28;20212;-76
2023/09/27 10:49:09;;;;;;;4.83;3.20;;;28.20;59.40;;;;;;5054400;28;20639;-76
2023/09/27 10:51:37;;;;;;;3.57;3.10;;;28.20;59.20;;;;;;5054089;28;20239;-75
2023/09/27 10:54:08;;;;;;;3.60;3.27;;;28.30;59.20;;;;;;5053960;28;20737;-76
2023/09/27 10:56:35;;;;;;;4.40;3.17;;;28.40;58.50;;;;;;5034210;28;20215;-75
2023/09/27 10:59:05;;;;;;;3.40;3.10;;;28.60;58.30;;;;;;5050736;28;20225;-75
2023/09/27 11:01:33;;;;;;;4.77;2.90;;;28.70;58.40;;;;;;5017629;28;20292;-75
2023/09/27 11:04:01;;;;;;;3.20;2.90;;;28.80;58.00;;;;;;5053298;28;20210;-75
2023/09/27 11:06:29;;;;;;;3.47;2.70;;;29.00;57.90;;;;;;5053794;28;20296;-74
2023/09/27 11:09:05;;;;;;;3.50;3.20;;;29.10;57.70;;;;;;5054061;28;20213;-74
2023/09/27 11:11:32;;;;;;;3.50;3.13;;;29.20;57.20;;;;;;5053279;28;20240;-74
2023/09/27 11:13:59;;;;;;;3.73;3.03;;;29.30;57.10;;;;;;5053455;28;20734;-76
2023/09/27 11:16:27;;;;;;;3.57;3.27;;;29.40;56.60;;;;;;5053684;28;20212;-76
2023/09/27 11:18:56;;;;;;;2.83;2.60;;;29.50;55.90;;;;;;5035720;28;20241;-76
2023/09/27 11:21:25;;;;;;;2.87;2.67;;;29.60;55.90;;;;;;5051914;28;20270;-76
2023/09/27 11:23:54;;;;;;;5.17;2.87;;;29.80;56.10;;;;;;5053559;28;20212;-76
2023/09/27 11:26:21;;;;;;;4.03;2.73;;;29.90;55.60;;;;;;5053137;28;20232;-76
2023/09/27 11:28:59;;;;;;;3.13;2.67;;;30.00;55.30;;;;;;5052980;28;20217;-76
2023/09/27 11:31:29;;;;;;;2.93;2.70;;;30.20;54.40;;;;;;5053307;28;20566;-76
2023/09/27 11:34:11;;;;;;;2.90;2.60;;;30.20;54.70;;;;;;5053186;28;20209;-76
2023/09/27 11:36:42;;;;;;;3.20;2.63;;;30.40;54.30;;;;;;5053425;28;20202;-76
2023/09/27 11:39:10;;;;;;;2.70;2.40;;;30.50;54.00;;;;;;5053307;28;20270;-76
2023/09/27 11:41:37;;;;;;;2.80;2.60;;;30.60;53.50;;;;;;5052983;28;20252;-75
2023/09/27 11:44:19;;;;;;;2.70;2.50;;;30.80;53.30;;;;;;5052706;28;20202;-75
2023/09/27 11:46:49;;;;;;;3.20;2.90;;;30.90;53.50;;;;;;5053090;28;20186;-76
2023/09/27 11:49:17;;;;;;;3.03;2.83;;;31.00;53.50;;;;;;5052863;28;20832;-77
2023/09/27 11:51:44;;;;;;;2.47;2.27;;;31.20;52.80;;;;;;5052658;28;20221;-75
2023/09/27 11:54:12;;;;;;;2.97;2.60;;;31.30;52.80;;;;;;5051823;28;20197;-76
2023/09/27 11:56:39;;;;;;;3.10;2.80;;;31.30;52.70;;;;;;5052951;28;20207;-76
2023/09/27 11:59:07;;;;;;;3.20;2.90;;;31.40;52.70;;;;;;5052551;28;20208;-76
2023/09/27 12:01:35;;;;;;;3.20;2.50;;;31.30;52.50;;;;;;5052461;28;20572;-77
2023/09/27 12:04:03;;;;;;;3.23;2.33;;;31.20;52.20;;;;;;5052504;28;20233;-77
2023/09/27 12:06:31;;;;;;;4.53;2.80;;;31.20;51.70;;;;;;5052330;28;20222;-77
2023/09/27 12:08:59;;;;;;;2.80;2.37;;;31.20;51.90;;;;;;5052311;28;20305;-76
2023/09/27 12:11:26;;;;;;;2.83;2.50;;;31.10;52.00;;;;;;5029979;28;20229;-74
2023/09/27 12:13:52;;;;;;;3.23;2.60;;;31.10;51.80;;;;;;5040245;28;20743;-77
2023/09/27 12:16:20;;;;;;;2.87;2.43;;;31.10;51.10;;;;;;5052190;28;20950;-76
2023/09/27 12:18:47;;;;;;;2.40;2.20;;;31.20;50.90;;;;;;5052537;28;20476;-76
2023/09/27 12:21:15;;;;;;;2.60;2.30;;;31.20;51.10;;;;;;5052431;28;20222;-75
2023/09/27 12:23:43;;;;;;;3.50;2.50;;;31.30;50.90;;;;;;5052220;28;20248;-75
2023/09/27 12:26:12;;;;;;;2.60;2.40;;;31.40;50.90;;;;;;5052194;28;20266;-75
2023/09/27 12:28:39;;;;;;;3.30;2.53;;;31.60;50.40;;;;;;5051642;28;20591;-76
2023/09/27 12:31:06;;;;;;;3.90;2.20;;;31.80;50.20;;;;;;5051714;28;20788;-76
2023/09/27 12:33:33;;;;;;;3.37;2.60;;;31.80;50.10;;;;;;5051742;28;20202;-76
2023/09/27 12:36:01;;;;;;;2.77;2.40;;;31.90;50.10;;;;;;5051405;28;20682;-76
2023/09/27 12:38:29;;;;;;;2.97;2.30;;;31.90;49.40;;;;;;5051453;28;20233;-76
2023/09/27 12:41:00;;;;;;;3.73;2.30;;;32.10;49.30;;;;;;5052074;28;20315;-76
2023/09/27 12:43:27;;;;;;;2.80;2.50;;;32.20;48.80;;;;;;5051402;28;20239;-76
2023/09/27 12:45:53;;;;;;;2.23;2.07;;;32.30;48.50;;;;;;5015655;28;20227;-76
2023/09/27 12:48:20;;;;;;;3.70;2.37;;;32.50;47.80;;;;;;5051394;28;20200;-76
2023/09/27 12:50:47;;;;;;;2.30;2.10;;;32.70;48.30;;;;;;5051490;28;20244;-76
2023/09/27 12:53:14;;;;;;;2.20;1.90;;;32.80;47.60;;;;;;5051400;28;20731;-76